CheckWX is a tool to help pilots better visualize weather data.  It is not intended as a substitute for an official pre-flight weather briefing.

04:43:08 UTC

EHEH METAR
Eindhoven Airport
Eindhoven, The Netherlands
Current

18 mins ago

EHEH 270425Z AUTO 02010KT 360V060 9999 OVC012 15/12 Q1028 GRN 02010KT 9999 BKN012
Observed
Jun-27 @ 04:25 UTC
Wind
  • 020° at 10 KTS
Visibility
10,000+ meters
Flight Rules
MVFR
Cloud Levels
  • Overcast at 1,200' AGL
  • Broken at 1,200' AGL
Temperature
15°C / 59°F
Dewpoint
12°C / 54°F
Humidity
82%
Altimeter
30.35" Hg
Pressure
1027.92 hPa
Previous

48 mins ago

EHEH 270355Z AUTO 02010KT 9999 OVC012 15/12 Q1028 GRN
Observed
Jun-27 @ 03:55 UTC
Wind
  • 020° at 10 KTS
Visibility
10,000+ meters
Flight Rules
MVFR
Cloud Levels
  • Overcast at 1,200' AGL
Temperature
15°C / 59°F
Dewpoint
12°C / 54°F
Humidity
82%
Altimeter
30.35" Hg
Pressure
1027.92 hPa
Previous

1 hour ago

EHEH 270325Z AUTO 02011KT 350V050 9999 OVC012 15/12 Q1028 GRN
Observed
Jun-27 @ 03:25 UTC
Wind
  • 020° at 11 KTS
Visibility
10,000+ meters
Flight Rules
MVFR
Cloud Levels
  • Overcast at 1,200' AGL
Temperature
15°C / 59°F
Dewpoint
12°C / 54°F
Humidity
82%
Altimeter
30.35" Hg
Pressure
1027.92 hPa